createdAt,value
2018-02-04T00:02:17.618Z,98.90
2018-02-04T00:04:46.344Z,98.90
2018-02-04T00:07:13.849Z,99.20
2018-02-04T00:09:43.860Z,99.40
2018-02-04T00:12:12.691Z,99.30
2018-02-04T00:14:43.673Z,99.30
2018-02-04T00:17:11.220Z,99.20
2018-02-04T00:19:38.977Z,99.20
2018-02-04T00:22:06.499Z,99.10
2018-02-04T00:24:34.003Z,99.00
2018-02-04T00:27:01.560Z,99.10
2018-02-04T00:29:29.045Z,99.20
2018-02-04T00:31:56.555Z,99.20
2018-02-04T00:34:24.044Z,99.40
2018-02-04T00:36:51.532Z,99.40
2018-02-04T00:39:19.797Z,99.40
2018-02-04T00:41:48.061Z,99.30
2018-02-04T00:44:15.557Z,99.30
2018-02-04T00:46:43.092Z,99.20
2018-02-04T00:49:10.597Z,99.30
2018-02-04T00:51:38.098Z,99.10
2018-02-04T00:54:06.364Z,98.70
2018-02-04T00:56:33.864Z,98.80
2018-02-04T00:59:01.399Z,98.70
2018-02-04T01:01:29.661Z,98.90
2018-02-04T01:03:57.201Z,98.80
2018-02-04T01:06:24.682Z,98.90
2018-02-04T01:08:52.951Z,99.00
2018-02-04T01:11:20.465Z,98.90
2018-02-04T01:13:48.002Z,98.80
2018-02-04T01:16:17.371Z,99.10
2018-02-04T01:18:45.038Z,99.20
2018-02-04T01:21:12.710Z,99.20
2018-02-04T01:23:40.322Z,99.20
2018-02-04T01:26:08.027Z,99.20
2018-02-04T01:28:36.209Z,99.20
2018-02-04T01:31:03.759Z,99.10
2018-02-04T01:33:32.163Z,99.30
2018-02-04T01:35:59.765Z,99.50
2018-02-04T01:38:28.077Z,99.50
2018-02-04T01:40:55.637Z,99.20
2018-02-04T01:43:23.227Z,99.20
2018-02-04T01:45:54.117Z,99.20
2018-02-04T01:48:21.752Z,99.40
2018-02-04T01:50:49.247Z,99.20
2018-02-04T01:53:16.815Z,99.40
2018-02-04T01:55:45.115Z,99.30
2018-02-04T01:58:12.650Z,99.20
2018-02-04T02:00:40.157Z,99.40
2018-02-04T02:03:08.468Z,99.50
2018-02-04T02:05:39.847Z,99.40
2018-02-04T02:08:08.127Z,99.40
2018-02-04T02:10:35.749Z,99.30
2018-02-04T02:13:03.193Z,99.20
2018-02-04T02:15:30.700Z,99.40
2018-02-04T02:17:58.209Z,99.50
2018-02-04T02:20:25.679Z,99.70
2018-02-04T02:22:53.168Z,99.70
2018-02-04T02:25:20.977Z,99.70
2018-02-04T02:27:48.458Z,99.60
2018-02-04T02:30:16.015Z,99.60
2018-02-04T02:32:43.490Z,99.40
2018-02-04T02:35:11.721Z,99.70
2018-02-04T02:37:39.207Z,99.60
2018-02-04T02:40:06.717Z,99.70
2018-02-04T02:42:34.195Z,99.60
2018-02-04T02:45:01.727Z,99.60
2018-02-04T02:47:29.313Z,99.70
2018-02-04T02:49:56.798Z,99.50
2018-02-04T02:52:24.322Z,99.60
2018-02-04T02:54:52.556Z,99.50
2018-02-04T02:57:20.065Z,99.40
2018-02-04T02:59:48.350Z,99.70
2018-02-04T03:02:15.856Z,99.60
2018-02-04T03:04:43.429Z,99.70
2018-02-04T03:07:10.954Z,99.60
2018-02-04T03:09:39.940Z,99.80
2018-02-04T03:12:07.409Z,99.70
2018-02-04T03:14:35.654Z,99.60
2018-02-04T03:17:03.142Z,99.60
2018-02-04T03:19:30.614Z,99.70
2018-02-04T03:21:59.079Z,99.70
2018-02-04T03:24:26.563Z,99.70
2018-02-04T03:26:54.047Z,99.80
2018-02-04T03:29:21.523Z,99.90
2018-02-04T03:31:48.993Z,99.90
2018-02-04T03:34:16.470Z,99.90
2018-02-04T03:36:44.769Z,99.90
2018-02-04T03:39:12.262Z,99.90
2018-02-04T03:41:39.766Z,99.80
2018-02-04T03:44:07.266Z,99.80
2018-02-04T03:46:34.766Z,99.90
2018-02-04T03:49:03.025Z,99.90
2018-02-04T03:51:30.508Z,99.90
2018-02-04T03:53:58.757Z,99.90
2018-02-04T03:56:26.229Z,99.90
2018-02-04T03:58:54.492Z,99.90
2018-02-04T04:01:21.949Z,99.90
2018-02-04T04:03:49.478Z,99.90
2018-02-04T04:06:16.962Z,99.90
2018-02-04T04:08:44.421Z,99.90
2018-02-04T04:11:11.918Z,99.90
2018-02-04T04:13:39.402Z,99.90
2018-02-04T04:16:06.876Z,99.90
2018-02-04T04:18:34.358Z,99.90
2018-02-04T04:21:01.869Z,99.90
2018-02-04T04:23:29.337Z,99.90
2018-02-04T04:25:56.810Z,99.80
2018-02-04T04:28:24.313Z,99.80
2018-02-04T04:30:51.788Z,99.80
2018-02-04T04:33:19.306Z,99.70
2018-02-04T04:35:46.831Z,99.80
2018-02-04T04:38:14.314Z,99.80
2018-02-04T04:40:41.781Z,99.80
2018-02-04T04:43:09.281Z,99.80
2018-02-04T04:45:36.774Z,99.80
2018-02-04T04:48:04.290Z,99.80
2018-02-04T04:50:31.788Z,99.60
2018-02-04T04:52:59.239Z,99.60
2018-02-04T04:55:26.746Z,99.60
2018-02-04T04:57:54.226Z,99.80
2018-02-04T05:00:21.717Z,99.70
2018-02-04T05:02:49.185Z,99.60
2018-02-04T05:05:17.464Z,99.70
2018-02-04T05:07:44.946Z,99.70
2018-02-04T05:10:13.184Z,99.40
2018-02-04T05:12:40.685Z,99.30
2018-02-04T05:15:08.910Z,99.50
2018-02-04T05:17:36.382Z,99.40
2018-02-04T05:20:03.858Z,99.40
2018-02-04T05:22:32.148Z,99.70
2018-02-04T05:25:00.673Z,99.70
2018-02-04T05:27:28.154Z,99.60
2018-02-04T05:29:55.671Z,99.50
2018-02-04T05:32:23.864Z,99.40
2018-02-04T05:34:51.412Z,99.70
2018-02-04T05:37:18.883Z,99.70
2018-02-04T05:39:46.368Z,99.70
2018-02-04T05:42:14.638Z,99.50
2018-02-04T05:44:42.145Z,99.40
2018-02-04T05:47:09.650Z,99.40
2018-02-04T05:49:37.171Z,99.70
2018-02-04T05:52:04.675Z,99.50
2018-02-04T05:54:32.170Z,99.50
2018-02-04T05:56:59.956Z,99.50
2018-02-04T05:59:27.445Z,99.70
2018-02-04T06:01:54.924Z,99.60
2018-02-04T06:04:22.424Z,99.50
2018-02-04T06:06:49.936Z,99.50
2018-02-04T06:09:17.461Z,99.30
2018-02-04T06:11:44.960Z,99.20
2018-02-04T06:14:12.453Z,99.20
2018-02-04T06:16:39.921Z,99.30
2018-02-04T06:19:07.421Z,99.50
2018-02-04T06:21:35.689Z,99.40
2018-02-04T06:24:03.156Z,99.40
2018-02-04T06:26:30.660Z,99.30
2018-02-04T06:28:58.177Z,99.50
2018-02-04T06:31:26.437Z,99.90
2018-02-04T06:33:53.970Z,99.90
2018-02-04T06:36:21.454Z,99.90
2018-02-04T06:38:48.940Z,99.90
2018-02-04T06:41:16.494Z,99.90
2018-02-04T06:43:44.835Z,99.90
2018-02-04T06:46:12.319Z,99.90
2018-02-04T06:48:40.603Z,99.90
2018-02-04T06:51:08.107Z,99.90
2018-02-04T06:53:35.623Z,99.90
2018-02-04T06:56:04.024Z,99.90
2018-02-04T06:58:31.514Z,99.90
2018-02-04T07:00:59.022Z,99.90
2018-02-04T07:03:26.534Z,99.90
2018-02-04T07:05:54.018Z,99.90
2018-02-04T07:08:21.523Z,99.90
2018-02-04T07:10:49.054Z,99.90
2018-02-04T07:13:16.566Z,99.90
2018-02-04T07:15:44.824Z,99.90
2018-02-04T07:18:12.325Z,99.90
2018-02-04T07:20:39.792Z,99.90
2018-02-04T07:23:07.310Z,99.90
2018-02-04T07:25:34.801Z,99.90
2018-02-04T07:28:03.112Z,99.80
2018-02-04T07:30:30.628Z,99.80
2018-02-04T07:32:58.094Z,99.80
2018-02-04T07:35:25.586Z,99.90
2018-02-04T07:37:53.061Z,99.70
2018-02-04T07:40:20.570Z,99.90
2018-02-04T07:42:48.854Z,99.60
2018-02-04T07:45:16.415Z,99.50
2018-02-04T07:47:43.923Z,99.60
2018-02-04T07:50:11.485Z,99.60
2018-02-04T07:52:39.075Z,99.40
2018-02-04T07:55:06.753Z,99.40
2018-02-04T07:57:34.336Z,99.50
2018-02-04T08:00:01.988Z,99.40
2018-02-04T08:02:29.565Z,99.40
2018-02-04T08:04:57.133Z,99.20
2018-02-04T08:07:24.663Z,99.00
2018-02-04T08:09:52.176Z,98.90
2018-02-04T08:12:20.469Z,99.20
2018-02-04T08:14:47.985Z,99.00
2018-02-04T08:17:15.491Z,99.00
2018-02-04T08:19:43.028Z,98.70
2018-02-04T08:22:10.627Z,98.50
2018-02-04T08:24:38.120Z,98.40
2018-02-04T08:27:05.628Z,98.20
2018-02-04T08:29:33.128Z,97.60
2018-02-04T08:32:00.639Z,98.00
2018-02-04T08:34:28.152Z,98.50
2018-02-04T08:36:55.647Z,97.80
2018-02-04T08:39:23.166Z,97.90
2018-02-04T08:41:50.685Z,97.90
2018-02-04T08:44:18.210Z,98.00
2018-02-04T08:46:45.702Z,98.00
2018-02-04T08:49:13.236Z,97.60
2018-02-04T08:51:40.718Z,97.30
2018-02-04T08:54:08.985Z,97.00
2018-02-04T08:56:36.539Z,97.00
2018-02-04T08:59:04.817Z,96.60
2018-02-04T09:01:32.347Z,96.60
2018-02-04T09:03:59.812Z,95.80
2018-02-04T09:06:27.348Z,95.50
2018-02-04T09:08:55.634Z,95.00
2018-02-04T09:11:23.141Z,95.00
2018-02-04T09:13:50.650Z,94.80
2018-02-04T09:16:18.139Z,95.00
2018-02-04T09:18:45.597Z,95.50
2018-02-04T09:21:13.865Z,94.50
2018-02-04T09:23:41.386Z,94.40
2018-02-04T09:26:08.878Z,94.40
2018-02-04T09:28:36.354Z,94.40
2018-02-04T09:31:03.867Z,94.20
2018-02-04T09:33:31.359Z,94.00
2018-02-04T09:35:58.843Z,93.70
2018-02-04T09:38:26.656Z,93.50
2018-02-04T09:40:54.148Z,93.40
2018-02-04T09:43:22.458Z,93.70
2018-02-04T09:45:49.957Z,93.60
2018-02-04T09:48:17.466Z,93.50
2018-02-04T09:50:44.954Z,93.90
2018-02-04T09:53:12.463Z,93.70
2018-02-04T09:55:40.298Z,93.70
2018-02-04T09:58:07.824Z,94.10
2018-02-04T10:00:36.097Z,93.90
2018-02-04T10:03:03.584Z,93.90
2018-02-04T10:05:31.068Z,93.80
2018-02-04T10:07:58.591Z,93.60
2018-02-04T10:10:26.160Z,93.70
2018-02-04T10:12:55.692Z,93.60
2018-02-04T10:20:45.078Z,94.10
2018-02-04T10:23:12.964Z,94.00
2018-02-04T10:25:45.520Z,93.90
2018-02-04T10:28:13.086Z,94.20
2018-02-04T10:30:41.152Z,94.50
2018-02-04T10:33:08.662Z,94.60
2018-02-04T10:35:36.180Z,94.10
2018-02-04T10:38:03.706Z,94.10
2018-02-04T10:40:31.275Z,94.60
2018-02-04T10:42:58.790Z,94.70
2018-02-04T10:45:26.277Z,94.60
2018-02-04T10:47:54.562Z,95.00
2018-02-04T10:50:22.067Z,94.90
2018-02-04T10:52:49.562Z,94.00
2018-02-04T10:55:17.064Z,93.70
2018-02-04T10:57:44.622Z,93.80
2018-02-04T11:00:12.872Z,93.90
2018-02-04T11:02:40.360Z,93.80
2018-02-04T11:05:08.653Z,93.90
2018-02-04T11:07:36.387Z,93.90
2018-02-04T11:10:03.913Z,94.30
2018-02-04T11:12:32.218Z,94.20
2018-02-04T11:14:59.757Z,94.20
2018-02-04T11:17:28.060Z,94.30
2018-02-04T11:19:55.580Z,94.20
2018-02-04T11:22:23.097Z,93.90
2018-02-04T11:24:50.910Z,93.80
2018-02-04T11:27:18.474Z,93.70
2018-02-04T11:29:45.958Z,94.00
2018-02-04T11:32:21.250Z,94.40
2018-02-04T11:34:48.758Z,94.00
2018-02-04T11:37:17.018Z,93.80
2018-02-04T11:39:44.540Z,94.00
2018-02-04T11:42:12.034Z,93.80
2018-02-04T11:44:39.549Z,93.70
2018-02-04T11:47:07.049Z,92.90
2018-02-04T11:49:34.539Z,93.00
2018-02-04T11:52:02.796Z,92.50
2018-02-04T11:54:31.072Z,92.40
2018-02-04T11:56:59.352Z,92.90
2018-02-04T11:59:27.642Z,92.70
2018-02-04T12:01:55.134Z,92.70
2018-02-04T12:04:22.639Z,92.00
2018-02-04T12:06:51.788Z,92.30
2018-02-04T12:09:19.309Z,92.30
2018-02-04T12:11:46.850Z,92.20
2018-02-04T12:14:15.063Z,91.90
2018-02-04T12:16:42.555Z,91.70
2018-02-04T12:19:10.047Z,92.00
2018-02-04T12:21:39.304Z,92.00
2018-02-04T12:24:06.830Z,92.00
2018-02-04T12:26:35.039Z,91.50
2018-02-04T12:29:04.575Z,91.40
2018-02-04T12:31:32.345Z,92.00
2018-02-04T12:33:59.870Z,92.00
2018-02-04T12:36:27.568Z,91.50
2018-02-04T12:38:55.180Z,91.40
2018-02-04T12:41:22.653Z,90.90
2018-02-04T12:43:50.949Z,91.80
2018-02-04T12:46:18.521Z,91.70
2018-02-04T12:48:46.924Z,91.50
2018-02-04T12:51:14.482Z,91.00
2018-02-04T12:53:42.008Z,91.50
2018-02-04T12:56:09.557Z,91.20
2018-02-04T12:58:37.809Z,90.70
2018-02-04T13:01:05.307Z,90.50
2018-02-04T13:03:32.840Z,89.60
2018-02-04T13:06:00.345Z,89.00
2018-02-04T13:08:27.891Z,89.00
2018-02-04T13:10:55.398Z,90.20
2018-02-04T13:13:23.990Z,90.20
2018-02-04T13:15:51.538Z,89.40
2018-02-04T13:18:19.916Z,89.60
2018-02-04T13:20:48.206Z,90.00
2018-02-04T13:23:15.743Z,89.90
2018-02-04T13:25:43.291Z,90.40
2018-02-04T13:28:10.821Z,90.10
2018-02-04T13:30:38.346Z,90.70
2018-02-04T13:33:05.836Z,90.40
2018-02-04T13:35:33.378Z,90.00
2018-02-04T13:38:01.655Z,89.50
2018-02-04T13:40:30.225Z,89.60
2018-02-04T13:42:57.718Z,89.40
2018-02-04T13:45:25.242Z,89.80
2018-02-04T13:47:52.737Z,89.20
2018-02-04T13:50:20.268Z,90.00
2018-02-04T13:52:47.811Z,90.20
2018-02-04T13:55:15.349Z,89.20
2018-02-04T13:57:42.818Z,89.90
2018-02-04T14:00:10.284Z,89.90
2018-02-04T14:02:37.863Z,89.50
2018-02-04T14:05:05.351Z,89.10
2018-02-04T14:07:32.943Z,89.00
2018-02-04T14:10:00.775Z,90.00
2018-02-04T14:12:28.577Z,88.90
2018-02-04T14:14:56.123Z,90.00
2018-02-04T14:17:23.656Z,90.00
2018-02-04T14:19:51.161Z,89.00
2018-02-04T14:22:18.703Z,88.90
2018-02-04T14:24:47.033Z,88.60
2018-02-04T14:27:14.562Z,88.30
2018-02-04T14:29:42.057Z,87.80
2018-02-04T14:32:09.608Z,87.30
2018-02-04T14:34:37.081Z,87.80
2018-02-04T14:37:04.581Z,87.50
2018-02-04T14:39:32.063Z,89.00
2018-02-04T14:41:59.568Z,88.40
2018-02-04T14:44:27.911Z,88.80
2018-02-04T14:46:56.155Z,89.10
2018-02-04T14:49:23.656Z,88.80
2018-02-04T14:51:51.182Z,89.80
2018-02-04T14:54:18.684Z,89.20
2018-02-04T14:56:46.310Z,89.40
2018-02-04T14:59:13.830Z,89.60
2018-02-04T15:01:41.323Z,88.70
2018-02-04T15:04:08.818Z,88.60
2018-02-04T15:06:36.334Z,88.60
2018-02-04T15:09:03.829Z,88.30
2018-02-04T15:11:31.394Z,88.90
2018-02-04T15:13:58.893Z,88.60
2018-02-04T15:16:27.781Z,89.20
2018-02-04T15:18:55.435Z,88.00
2018-02-04T15:21:23.848Z,90.20
2018-02-04T15:23:51.508Z,89.90
2018-02-04T15:26:19.107Z,89.40
2018-02-04T15:28:46.699Z,89.10
2018-02-04T15:31:15.016Z,88.50
2018-02-04T15:33:43.475Z,89.30
2018-02-04T15:36:11.892Z,88.60
2018-02-04T15:38:40.329Z,88.20
2018-02-04T15:41:07.888Z,88.40
2018-02-04T15:43:36.296Z,88.60
2018-02-04T15:46:04.590Z,90.00
2018-02-04T15:48:32.133Z,90.00
2018-02-04T15:50:59.650Z,89.10
2018-02-04T15:53:27.139Z,90.00
2018-02-04T15:55:55.108Z,89.20
2018-02-04T15:58:23.431Z,90.90
2018-02-04T16:00:50.989Z,90.80
2018-02-04T16:03:18.511Z,91.00
2018-02-04T16:05:46.072Z,90.70
2018-02-04T16:08:13.614Z,91.40
2018-02-04T16:10:41.120Z,91.40
2018-02-04T16:13:08.660Z,91.80
2018-02-04T16:15:36.213Z,92.20
2018-02-04T16:18:03.740Z,92.70
2018-02-04T16:20:31.250Z,92.20
2018-02-04T16:22:58.770Z,92.50
2018-02-04T16:25:27.064Z,93.10
2018-02-04T16:27:55.343Z,93.20
2018-02-04T16:30:22.865Z,93.20
2018-02-04T16:32:50.332Z,93.30
2018-02-04T16:35:18.605Z,93.40
2018-02-04T16:37:46.884Z,93.60
2018-02-04T16:40:14.418Z,93.50
2018-02-04T16:42:41.917Z,93.50
2018-02-04T16:45:09.496Z,93.90
2018-02-04T16:47:36.997Z,94.10
2018-02-04T16:50:05.298Z,94.30
2018-02-04T16:52:32.804Z,94.20
2018-02-04T16:55:00.320Z,94.20
2018-02-04T16:57:28.653Z,94.90
2018-02-04T16:59:56.147Z,94.80
2018-02-04T17:02:23.644Z,95.10
2018-02-04T17:04:51.648Z,94.90
2018-02-04T17:07:19.154Z,95.10
2018-02-04T17:09:46.671Z,95.20
2018-02-04T17:12:15.093Z,95.10
2018-02-04T17:14:42.693Z,95.00
2018-02-04T17:17:10.234Z,94.80
2018-02-04T17:19:37.710Z,94.70
2018-02-04T17:22:06.016Z,95.10
2018-02-04T17:24:33.512Z,95.10
2018-02-04T17:27:01.016Z,95.20
2018-02-04T17:29:30.022Z,95.30
2018-02-04T17:31:57.511Z,95.50
2018-02-04T17:34:25.044Z,95.60
2018-02-04T17:36:53.316Z,95.90
2018-02-04T17:39:20.803Z,95.90
2018-02-04T17:41:48.437Z,95.80
2018-02-04T17:44:16.022Z,95.70
2018-02-04T17:46:43.508Z,95.80
2018-02-04T17:49:10.969Z,95.90
2018-02-04T17:51:38.547Z,96.10
2018-02-04T17:54:06.055Z,96.10
2018-02-04T17:56:33.663Z,96.00
2018-02-04T17:59:01.943Z,95.90
2018-02-04T18:01:30.181Z,96.10
2018-02-04T18:03:57.999Z,96.00
2018-02-04T18:06:25.559Z,96.30
2018-02-04T18:08:53.051Z,96.30
2018-02-04T18:11:20.562Z,96.30
2018-02-04T18:13:48.069Z,96.40
2018-02-04T18:16:16.399Z,96.60
2018-02-04T18:18:44.833Z,96.70
2018-02-04T18:21:12.655Z,96.40
2018-02-04T18:23:40.255Z,96.40
2018-02-04T18:26:07.803Z,96.30
2018-02-04T18:28:36.146Z,96.40
2018-02-04T18:31:03.808Z,96.30
2018-02-04T18:33:31.418Z,96.40
2018-02-04T18:35:58.945Z,96.60
2018-02-04T18:38:26.457Z,96.60
2018-02-04T18:40:53.975Z,96.80
2018-02-04T18:43:21.617Z,96.80
2018-02-04T18:45:49.159Z,96.90
2018-02-04T18:48:16.762Z,97.00
2018-02-04T18:50:44.242Z,97.00
2018-02-04T18:53:11.756Z,97.20
2018-02-04T18:55:40.036Z,97.10
2018-02-04T18:58:08.414Z,97.10
2018-02-04T19:00:35.978Z,97.10
2018-02-04T19:03:04.074Z,97.30
2018-02-04T19:05:32.390Z,97.20
2018-02-04T19:08:00.689Z,97.40
2018-02-04T19:10:28.183Z,97.30
2018-02-04T19:12:55.662Z,97.30
2018-02-04T19:15:23.146Z,97.30
2018-02-04T19:17:50.668Z,97.40
2018-02-04T19:20:18.194Z,97.40
2018-02-04T19:22:46.465Z,97.40
2018-02-04T19:25:14.710Z,97.60
2018-02-04T19:27:42.195Z,97.80
2018-02-04T19:30:09.811Z,97.40
2018-02-04T19:32:37.288Z,97.20
2018-02-04T19:35:04.796Z,97.50
2018-02-04T19:37:32.304Z,97.50
2018-02-04T19:39:59.810Z,97.30
2018-02-04T19:42:27.381Z,97.20
2018-02-04T19:44:54.905Z,97.30
2018-02-04T19:47:23.205Z,97.50
2018-02-04T19:49:50.730Z,97.40
2018-02-04T19:52:18.248Z,97.50
2018-02-04T19:54:45.812Z,97.20
2018-02-04T19:57:13.348Z,97.40
2018-02-04T19:59:40.835Z,97.40
2018-02-04T20:02:08.364Z,97.20
2018-02-04T20:04:36.341Z,97.30
2018-02-04T20:07:03.863Z,97.40
2018-02-04T20:09:32.217Z,97.20
2018-02-04T20:11:59.698Z,97.20
2018-02-04T20:14:27.269Z,97.30
2018-02-04T20:16:56.198Z,97.20
2018-02-04T20:19:23.742Z,97.30
2018-02-04T20:21:51.447Z,97.70
2018-02-04T20:24:18.955Z,98.00
2018-02-04T20:26:46.496Z,98.40
2018-02-04T20:29:14.123Z,98.60
2018-02-04T20:31:41.703Z,98.60
2018-02-04T20:34:21.280Z,98.80
2018-02-04T20:36:49.582Z,99.20
2018-02-04T20:39:17.133Z,99.00
2018-02-04T20:41:44.671Z,99.00
2018-02-04T20:44:12.232Z,99.00
2018-02-04T20:46:40.485Z,99.00
2018-02-04T20:49:08.084Z,98.80
2018-02-04T20:51:35.600Z,98.70
2018-02-04T20:54:03.871Z,98.90
2018-02-04T20:56:32.260Z,98.80
2018-02-04T20:58:59.829Z,98.90
2018-02-04T21:01:27.318Z,98.90
2018-02-04T21:03:55.093Z,98.80
2018-02-04T21:06:24.053Z,98.60
2018-02-04T21:08:51.571Z,98.50
2018-02-04T21:11:19.891Z,98.70
2018-02-04T21:13:47.424Z,98.60
2018-02-04T21:16:15.171Z,98.40
2018-02-04T21:18:42.710Z,98.30
2018-02-04T21:21:10.329Z,98.20
2018-02-04T21:23:37.931Z,98.20
2018-02-04T21:26:05.559Z,98.10
2018-02-04T21:28:33.111Z,98.00
2018-02-04T21:31:00.693Z,97.90
2018-02-04T21:33:28.314Z,97.90
2018-02-04T21:35:55.889Z,97.80
2018-02-04T21:38:23.390Z,97.90
2018-02-04T21:40:50.898Z,97.90
2018-02-04T21:43:22.043Z,98.10
2018-02-04T21:45:49.615Z,98.10
2018-02-04T21:48:17.252Z,97.90
2018-02-04T21:50:44.854Z,97.70
2018-02-04T21:53:12.491Z,97.80
2018-02-04T21:55:41.913Z,97.80
2018-02-04T21:58:09.567Z,97.70
2018-02-04T22:00:37.172Z,97.70
2018-02-04T22:03:05.535Z,97.80
2018-02-04T22:05:34.990Z,97.70
2018-02-04T22:08:03.375Z,97.60
2018-02-04T22:10:30.959Z,97.50
2018-02-04T22:12:58.541Z,97.50
2018-02-04T22:15:26.159Z,97.50
2018-02-04T22:17:56.672Z,97.30
2018-02-04T22:20:24.306Z,97.30
2018-02-04T22:22:55.848Z,97.30
2018-02-04T22:25:23.788Z,97.40
2018-02-04T22:27:51.610Z,97.30
2018-02-04T22:30:19.144Z,97.30
2018-02-04T22:32:49.654Z,97.70
2018-02-04T22:35:17.182Z,97.50
2018-02-04T22:37:44.673Z,97.70
2018-02-04T22:40:12.169Z,97.60
2018-02-04T22:42:39.673Z,97.70
2018-02-04T22:45:09.165Z,97.60
2018-02-04T22:47:36.660Z,97.50
2018-02-04T22:50:04.144Z,97.60
2018-02-04T22:52:32.113Z,97.50
2018-02-04T22:54:59.603Z,97.50
2018-02-04T22:57:27.127Z,97.50
2018-02-04T22:59:54.627Z,97.70
2018-02-04T23:02:22.118Z,97.30
2018-02-04T23:04:50.402Z,97.50
2018-02-04T23:07:18.666Z,97.40
2018-02-04T23:09:46.148Z,97.30
2018-02-04T23:12:14.426Z,97.50
2018-02-04T23:14:41.921Z,97.40
2018-02-04T23:17:09.482Z,97.20
2018-02-04T23:19:37.247Z,97.40
2018-02-04T23:22:04.717Z,97.30
2018-02-04T23:24:32.215Z,97.30
2018-02-04T23:26:59.751Z,97.20
2018-02-04T23:29:27.238Z,97.40
2018-02-04T23:31:54.751Z,97.30
2018-02-04T23:34:23.143Z,97.40
2018-02-04T23:36:50.658Z,97.40
2018-02-04T23:39:18.143Z,97.40
2018-02-04T23:41:45.628Z,97.50
2018-02-04T23:44:13.135Z,97.50
2018-02-04T23:46:40.610Z,97.40
2018-02-04T23:49:08.155Z,97.40
2018-02-04T23:51:35.685Z,97.30
2018-02-04T23:54:03.191Z,97.40
2018-02-04T23:56:30.680Z,97.60
2018-02-04T23:58:58.914Z,97.50
